sensor_id;sensor_type;location;lat;lon;timestamp;P1;P2;P0
21358;PMS7003;13506;50.852;20.632;2022-12-29T00:00:03;14.25;13.50;5.50
21358;PMS7003;13506;50.852;20.632;2022-12-29T00:02:59;14.25;11.50;6.00
21358;PMS7003;13506;50.852;20.632;2022-12-29T00:05:27;14.50;14.00;7.00
21358;PMS7003;13506;50.852;20.632;2022-12-29T00:07:55;17.50;15.25;8.25
21358;PMS7003;13506;50.852;20.632;2022-12-29T00:10:23;12.75;11.25;4.00
21358;PMS7003;13506;50.852;20.632;2022-12-29T00:12:50;16.00;11.00;5.00
21358;PMS7003;13506;50.852;20.632;2022-12-29T00:15:36;14.00;11.50;6.00
21358;PMS7003;13506;50.852;20.632;2022-12-29T00:18:05;14.00;14.00;7.75
21358;PMS7003;13506;50.852;20.632;2022-12-29T00:20:34;14.50;11.00;6.50
21358;PMS7003;13506;50.852;20.632;2022-12-29T00:23:20;10.50;9.00;3.25
21358;PMS7003;13506;50.852;20.632;2022-12-29T00:26:12;15.75;12.00;6.00
21358;PMS7003;13506;50.852;20.632;2022-12-29T00:28:58;16.40;14.00;8.00
21358;PMS7003;13506;50.852;20.632;2022-12-29T00:31:44;15.00;11.00;4.00
21358;PMS7003;13506;50.852;20.632;2022-12-29T00:34:30;16.50;13.50;7.50
21358;PMS7003;13506;50.852;20.632;2022-12-29T00:37:16;13.00;13.00;6.00
21358;PMS7003;13506;50.852;20.632;2022-12-29T00:40:05;10.50;9.25;4.75
21358;PMS7003;13506;50.852;20.632;2022-12-29T00:42:51;9.00;9.00;4.00
21358;PMS7003;13506;50.852;20.632;2022-12-29T00:45:36;25.20;17.60;11.00
21358;PMS7003;13506;50.852;20.632;2022-12-29T00:48:06;13.50;12.00;5.00
21358;PMS7003;13506;50.852;20.632;2022-12-29T00:50:35;11.00;9.50;5.00
21358;PMS7003;13506;50.852;20.632;2022-12-29T00:53:02;12.75;12.75;6.00
21358;PMS7003;13506;50.852;20.632;2022-12-29T00:55:30;10.00;9.75;3.75
21358;PMS7003;13506;50.852;20.632;2022-12-29T00:58:02;13.25;12.25;4.00
21358;PMS7003;13506;50.852;20.632;2022-12-29T01:00:30;16.25;12.25;6.00
21358;PMS7003;13506;50.852;20.632;2022-12-29T01:02:58;10.00;9.00;4.50
21358;PMS7003;13506;50.852;20.632;2022-12-29T01:05:26;11.00;11.00;6.00
21358;PMS7003;13506;50.852;20.632;2022-12-29T01:07:56;11.20;9.40;4.00
21358;PMS7003;13506;50.852;20.632;2022-12-29T01:10:24;15.50;9.00;4.00
21358;PMS7003;13506;50.852;20.632;2022-12-29T01:12:52;14.50;11.00;6.00
21358;PMS7003;13506;50.852;20.632;2022-12-29T01:15:20;13.00;11.20;4.40
21358;PMS7003;13506;50.852;20.632;2022-12-29T01:17:48;11.00;9.25;3.75
21358;PMS7003;13506;50.852;20.632;2022-12-29T01:20:16;14.00;14.00;6.00
21358;PMS7003;13506;50.852;20.632;2022-12-29T01:22:44;17.00;13.25;7.00
21358;PMS7003;13506;50.852;20.632;2022-12-29T01:25:14;11.50;11.00;6.00
21358;PMS7003;13506;50.852;20.632;2022-12-29T01:27:42;11.20;11.00;6.00
21358;PMS7003;13506;50.852;20.632;2022-12-29T01:30:11;11.50;11.00;4.50
21358;PMS7003;13506;50.852;20.632;2022-12-29T01:32:40;15.20;14.20;7.60
21358;PMS7003;13506;50.852;20.632;2022-12-29T01:35:07;14.25;10.50;6.00
21358;PMS7003;13506;50.852;20.632;2022-12-29T01:37:36;9.00;9.00;5.20
21358;PMS7003;13506;50.852;20.632;2022-12-29T01:40:04;11.80;11.40;4.00
21358;PMS7003;13506;50.852;20.632;2022-12-29T01:42:34;15.50;12.50;6.00
21358;PMS7003;13506;50.852;20.632;2022-12-29T01:45:02;10.50;10.50;6.00
21358;PMS7003;13506;50.852;20.632;2022-12-29T01:47:35;11.00;9.25;3.00
21358;PMS7003;13506;50.852;20.632;2022-12-29T01:50:09;13.25;9.50;3.25
21358;PMS7003;13506;50.852;20.632;2022-12-29T01:52:42;13.60;12.40;5.60
21358;PMS7003;13506;50.852;20.632;2022-12-29T01:55:16;13.25;9.50;4.00
21358;PMS7003;13506;50.852;20.632;2022-12-29T01:57:47;11.00;10.00;4.00
21358;PMS7003;13506;50.852;20.632;2022-12-29T02:00:18;9.00;8.00;3.00
21358;PMS7003;13506;50.852;20.632;2022-12-29T02:02:47;15.25;10.00;3.50
21358;PMS7003;13506;50.852;20.632;2022-12-29T02:05:20;11.00;11.00;7.00
21358;PMS7003;13506;50.852;20.632;2022-12-29T02:07:53;12.25;10.00;6.00
21358;PMS7003;13506;50.852;20.632;2022-12-29T02:10:21;11.25;11.00;6.00
21358;PMS7003;13506;50.852;20.632;2022-12-29T02:12:53;10.60;9.60;3.80
21358;PMS7003;13506;50.852;20.632;2022-12-29T02:15:24;11.25;11.25;7.00
21358;PMS7003;13506;50.852;20.632;2022-12-29T02:18:15;9.80;8.60;4.00
21358;PMS7003;13506;50.852;20.632;2022-12-29T02:21:03;13.60;12.20;4.80
21358;PMS7003;13506;50.852;20.632;2022-12-29T02:24:23;12.40;9.00;3.40
21358;PMS7003;13506;50.852;20.632;2022-12-29T02:27:23;9.50;9.50;4.00
21358;PMS7003;13506;50.852;20.632;2022-12-29T02:33:23;13.20;9.80;4.00
21358;PMS7003;13506;50.852;20.632;2022-12-29T02:36:03;10.00;7.00;2.00
21358;PMS7003;13506;50.852;20.632;2022-12-29T02:38:47;8.50;8.50;3.00
21358;PMS7003;13506;50.852;20.632;2022-12-29T02:41:23;11.50;9.00;4.75
21358;PMS7003;13506;50.852;20.632;2022-12-29T02:43:59;7.60;6.80;3.80
21358;PMS7003;13506;50.852;20.632;2022-12-29T02:46:37;11.75;9.75;5.00
21358;PMS7003;13506;50.852;20.632;2022-12-29T02:49:13;6.50;6.50;3.00
21358;PMS7003;13506;50.852;20.632;2022-12-29T02:51:50;13.00;12.00;4.00
21358;PMS7003;13506;50.852;20.632;2022-12-29T02:54:23;10.00;10.00;3.50
21358;PMS7003;13506;50.852;20.632;2022-12-29T02:57:12;10.25;10.25;3.50
21358;PMS7003;13506;50.852;20.632;2022-12-29T02:59:42;13.75;8.00;3.00
21358;PMS7003;13506;50.852;20.632;2022-12-29T03:02:24;8.25;6.00;3.00
21358;PMS7003;13506;50.852;20.632;2022-12-29T03:05:06;8.50;8.00;3.00
21358;PMS7003;13506;50.852;20.632;2022-12-29T03:07:48;8.00;8.00;3.50
21358;PMS7003;13506;50.852;20.632;2022-12-29T03:10:30;8.00;7.00;3.25
21358;PMS7003;13506;50.852;20.632;2022-12-29T03:13:11;12.00;8.75;4.00
21358;PMS7003;13506;50.852;20.632;2022-12-29T03:16:07;8.50;6.50;2.50
21358;PMS7003;13506;50.852;20.632;2022-12-29T03:18:48;6.50;6.50;1.00
21358;PMS7003;13506;50.852;20.632;2022-12-29T03:21:26;7.00;7.00;3.25
21358;PMS7003;13506;50.852;20.632;2022-12-29T03:24:22;9.50;7.75;1.00
21358;PMS7003;13506;50.852;20.632;2022-12-29T03:26:52;9.40;8.00;4.00
21358;PMS7003;13506;50.852;20.632;2022-12-29T03:29:27;11.00;8.00;3.00
21358;PMS7003;13506;50.852;20.632;2022-12-29T03:31:57;9.00;8.00;3.00
21358;PMS7003;13506;50.852;20.632;2022-12-29T03:34:30;8.25;8.25;3.75
21358;PMS7003;13506;50.852;20.632;2022-12-29T03:37:00;7.50;6.00;3.00
21358;PMS7003;13506;50.852;20.632;2022-12-29T03:39:36;5.50;5.50;3.00
21358;PMS7003;13506;50.852;20.632;2022-12-29T03:42:04;14.00;10.00;4.00
21358;PMS7003;13506;50.852;20.632;2022-12-29T03:44:38;8.00;8.00;3.75
21358;PMS7003;13506;50.852;20.632;2022-12-29T03:47:09;8.60;8.60;4.80
21358;PMS7003;13506;50.852;20.632;2022-12-29T03:49:40;8.75;8.00;3.00
21358;PMS7003;13506;50.852;20.632;2022-12-29T03:52:08;7.00;6.50;3.00
21358;PMS7003;13506;50.852;20.632;2022-12-29T03:54:41;9.25;8.75;3.00
21358;PMS7003;13506;50.852;20.632;2022-12-29T03:57:09;8.00;7.50;3.75
21358;PMS7003;13506;50.852;20.632;2022-12-29T03:59:49;7.00;5.00;1.50
21358;PMS7003;13506;50.852;20.632;2022-12-29T04:02:17;6.00;5.50;3.00
21358;PMS7003;13506;50.852;20.632;2022-12-29T04:04:46;7.50;7.50;3.00
21358;PMS7003;13506;50.852;20.632;2022-12-29T04:07:14;7.00;6.00;1.50
21358;PMS7003;13506;50.852;20.632;2022-12-29T04:09:42;13.60;9.00;3.00
21358;PMS7003;13506;50.852;20.632;2022-12-29T04:12:15;8.25;8.00;3.00
21358;PMS7003;13506;50.852;20.632;2022-12-29T04:14:43;8.00;8.00;1.00
21358;PMS7003;13506;50.852;20.632;2022-12-29T04:17:11;12.00;8.00;3.00
21358;PMS7003;13506;50.852;20.632;2022-12-29T04:19:41;8.25;8.25;3.00
21358;PMS7003;13506;50.852;20.632;2022-12-29T04:22:10;8.75;7.00;2.00
21358;PMS7003;13506;50.852;20.632;2022-12-29T04:24:39;9.00;7.50;3.00
21358;PMS7003;13506;50.852;20.632;2022-12-29T04:27:09;9.25;7.00;3.00
21358;PMS7003;13506;50.852;20.632;2022-12-29T04:29:48;8.75;6.00;1.50
21358;PMS7003;13506;50.852;20.632;2022-12-29T04:32:45;7.00;7.00;2.50
21358;PMS7003;13506;50.852;20.632;2022-12-29T04:35:13;6.50;6.00;1.50
21358;PMS7003;13506;50.852;20.632;2022-12-29T04:37:43;8.75;7.50;3.00
21358;PMS7003;13506;50.852;20.632;2022-12-29T04:40:11;6.00;6.00;2.50
21358;PMS7003;13506;50.852;20.632;2022-12-29T04:42:39;6.50;6.50;3.00
21358;PMS7003;13506;50.852;20.632;2022-12-29T04:45:07;6.00;6.00;1.00
21358;PMS7003;13506;50.852;20.632;2022-12-29T04:47:56;9.50;8.25;2.50
21358;PMS7003;13506;50.852;20.632;2022-12-29T04:50:27;6.00;5.00;2.50
21358;PMS7003;13506;50.852;20.632;2022-12-29T04:53:20;6.00;6.00;3.00
21358;PMS7003;13506;50.852;20.632;2022-12-29T04:55:51;4.50;4.50;1.50
21358;PMS7003;13506;50.852;20.632;2022-12-29T04:58:20;7.50;7.50;3.25
21358;PMS7003;13506;50.852;20.632;2022-12-29T05:03:33;8.50;6.00;3.00
21358;PMS7003;13506;50.852;20.632;2022-12-29T05:06:01;9.25;9.25;4.50
21358;PMS7003;13506;50.852;20.632;2022-12-29T05:08:30;8.00;6.00;1.00
21358;PMS7003;13506;50.852;20.632;2022-12-29T05:11:01;8.50;8.00;3.00
21358;PMS7003;13506;50.852;20.632;2022-12-29T05:13:29;8.00;7.00;3.00
21358;PMS7003;13506;50.852;20.632;2022-12-29T05:15:57;8.00;8.00;3.50
21358;PMS7003;13506;50.852;20.632;2022-12-29T05:18:25;6.50;6.50;1.00
21358;PMS7003;13506;50.852;20.632;2022-12-29T05:20:53;9.50;9.50;3.50
21358;PMS7003;13506;50.852;20.632;2022-12-29T05:23:22;7.50;5.75;1.00
21358;PMS7003;13506;50.852;20.632;2022-12-29T05:26:02;10.75;8.50;4.50
21358;PMS7003;13506;50.852;20.632;2022-12-29T05:28:42;6.00;6.00;1.00
21358;PMS7003;13506;50.852;20.632;2022-12-29T05:31:17;10.50;9.50;2.50
21358;PMS7003;13506;50.852;20.632;2022-12-29T05:33:47;6.00;6.00;3.00
21358;PMS7003;13506;50.852;20.632;2022-12-29T05:36:15;5.75;5.75;3.00
21358;PMS7003;13506;50.852;20.632;2022-12-29T05:38:47;6.50;5.00;1.00
21358;PMS7003;13506;50.852;20.632;2022-12-29T05:41:18;8.00;5.25;1.00
21358;PMS7003;13506;50.852;20.632;2022-12-29T05:44:04;8.00;5.00;1.00
21358;PMS7003;13506;50.852;20.632;2022-12-29T05:46:48;6.50;5.25;1.00
21358;PMS7003;13506;50.852;20.632;2022-12-29T05:49:19;13.25;8.00;4.50
21358;PMS7003;13506;50.852;20.632;2022-12-29T05:52:03;5.75;5.75;1.00
21358;PMS7003;13506;50.852;20.632;2022-12-29T05:54:32;5.00;5.00;1.00
21358;PMS7003;13506;50.852;20.632;2022-12-29T05:57:03;6.00;6.00;3.00
21358;PMS7003;13506;50.852;20.632;2022-12-29T05:59:32;9.00;8.00;1.00
21358;PMS7003;13506;50.852;20.632;2022-12-29T06:02:01;7.25;5.75;3.00
21358;PMS7003;13506;50.852;20.632;2022-12-29T06:04:29;11.50;5.25;1.50
21358;PMS7003;13506;50.852;20.632;2022-12-29T06:06:57;7.50;7.50;3.00
21358;PMS7003;13506;50.852;20.632;2022-12-29T06:09:39;7.00;6.00;1.50
21358;PMS7003;13506;50.852;20.632;2022-12-29T06:12:09;7.50;4.75;1.00
21358;PMS7003;13506;50.852;20.632;2022-12-29T06:14:39;7.50;6.00;3.00
21358;PMS7003;13506;50.852;20.632;2022-12-29T06:17:07;8.00;8.00;3.00
21358;PMS7003;13506;50.852;20.632;2022-12-29T06:19:36;8.50;6.50;3.00
21358;PMS7003;13506;50.852;20.632;2022-12-29T06:22:04;10.50;9.00;5.25
21358;PMS7003;13506;50.852;20.632;2022-12-29T06:24:34;8.80;7.60;3.40
21358;PMS7003;13506;50.852;20.632;2022-12-29T06:27:02;11.25;8.00;3.50
21358;PMS7003;13506;50.852;20.632;2022-12-29T06:29:32;8.25;6.00;2.50
21358;PMS7003;13506;50.852;20.632;2022-12-29T06:32:02;13.50;9.50;4.00
21358;PMS7003;13506;50.852;20.632;2022-12-29T06:34:32;10.75;10.75;5.50
21358;PMS7003;13506;50.852;20.632;2022-12-29T06:37:00;11.00;10.00;3.40
21358;PMS7003;13506;50.852;20.632;2022-12-29T06:39:28;5.50;5.50;1.00
21358;PMS7003;13506;50.852;20.632;2022-12-29T06:42:03;9.75;6.50;3.00
21358;PMS7003;13506;50.852;20.632;2022-12-29T06:44:44;7.00;7.00;3.00
21358;PMS7003;13506;50.852;20.632;2022-12-29T06:47:12;9.00;8.00;3.00
21358;PMS7003;13506;50.852;20.632;2022-12-29T06:49:39;7.75;7.75;3.00
21358;PMS7003;13506;50.852;20.632;2022-12-29T06:52:08;12.00;10.25;3.50
21358;PMS7003;13506;50.852;20.632;2022-12-29T06:54:35;11.00;7.50;3.00
21358;PMS7003;13506;50.852;20.632;2022-12-29T06:57:03;9.50;8.00;3.25
21358;PMS7003;13506;50.852;20.632;2022-12-29T06:59:31;8.00;8.00;1.50
21358;PMS7003;13506;50.852;20.632;2022-12-29T07:02:01;6.00;6.00;1.00
21358;PMS7003;13506;50.852;20.632;2022-12-29T07:04:29;5.25;5.25;1.50
21358;PMS7003;13506;50.852;20.632;2022-12-29T07:06:56;9.50;9.50;5.00
21358;PMS7003;13506;50.852;20.632;2022-12-29T07:09:24;6.00;6.00;2.00
21358;PMS7003;13506;50.852;20.632;2022-12-29T07:11:52;10.50;7.25;3.00
21358;PMS7003;13506;50.852;20.632;2022-12-29T07:14:20;9.75;9.75;3.00
21358;PMS7003;13506;50.852;20.632;2022-12-29T07:16:48;9.50;9.50;4.00
21358;PMS7003;13506;50.852;20.632;2022-12-29T07:19:17;8.00;8.00;3.00
21358;PMS7003;13506;50.852;20.632;2022-12-29T07:21:44;7.25;7.25;3.25
21358;PMS7003;13506;50.852;20.632;2022-12-29T07:24:12;6.50;6.00;1.00
21358;PMS7003;13506;50.852;20.632;2022-12-29T07:26:40;7.50;7.50;4.00
21358;PMS7003;13506;50.852;20.632;2022-12-29T07:29:08;6.00;6.00;2.50
21358;PMS7003;13506;50.852;20.632;2022-12-29T07:31:36;5.75;5.75;2.00
21358;PMS7003;13506;50.852;20.632;2022-12-29T07:34:04;9.75;6.50;3.00
21358;PMS7003;13506;50.852;20.632;2022-12-29T07:36:33;8.50;6.00;2.50
21358;PMS7003;13506;50.852;20.632;2022-12-29T07:39:01;7.50;6.00;1.00
21358;PMS7003;13506;50.852;20.632;2022-12-29T07:41:29;6.00;6.00;3.00
21358;PMS7003;13506;50.852;20.632;2022-12-29T07:44:00;10.25;7.00;3.00
21358;PMS7003;13506;50.852;20.632;2022-12-29T07:46:48;6.00;6.00;1.00
21358;PMS7003;13506;50.852;20.632;2022-12-29T07:49:16;5.75;5.50;1.00
21358;PMS7003;13506;50.852;20.632;2022-12-29T07:51:45;6.00;6.00;1.50
21358;PMS7003;13506;50.852;20.632;2022-12-29T07:54:13;10.00;7.00;2.50
21358;PMS7003;13506;50.852;20.632;2022-12-29T07:56:43;9.75;6.00;1.50
21358;PMS7003;13506;50.852;20.632;2022-12-29T07:59:11;8.00;6.00;3.00
21358;PMS7003;13506;50.852;20.632;2022-12-29T08:01:39;8.00;6.00;3.00
21358;PMS7003;13506;50.852;20.632;2022-12-29T08:04:07;6.00;6.00;3.00
21358;PMS7003;13506;50.852;20.632;2022-12-29T08:06:35;12.00;8.50;3.75
21358;PMS7003;13506;50.852;20.632;2022-12-29T08:09:04;6.25;5.00;3.00
21358;PMS7003;13506;50.852;20.632;2022-12-29T08:11:32;8.00;8.00;3.00
21358;PMS7003;13506;50.852;20.632;2022-12-29T08:14:00;6.00;6.00;2.00
21358;PMS7003;13506;50.852;20.632;2022-12-29T08:16:28;8.50;8.25;3.00
21358;PMS7003;13506;50.852;20.632;2022-12-29T08:18:56;7.00;7.00;2.00
21358;PMS7003;13506;50.852;20.632;2022-12-29T08:21:24;6.00;6.00;1.00
21358;PMS7003;13506;50.852;20.632;2022-12-29T08:23:53;7.50;6.00;2.00
21358;PMS7003;13506;50.852;20.632;2022-12-29T08:26:23;9.50;8.00;3.00
21358;PMS7003;13506;50.852;20.632;2022-12-29T08:28:51;9.00;9.00;3.50
21358;PMS7003;13506;50.852;20.632;2022-12-29T08:31:20;11.50;9.50;3.50
21358;PMS7003;13506;50.852;20.632;2022-12-29T08:33:48;4.50;4.50;1.50
21358;PMS7003;13506;50.852;20.632;2022-12-29T08:36:16;13.75;9.00;4.00
21358;PMS7003;13506;50.852;20.632;2022-12-29T08:38:44;8.00;7.00;1.50
21358;PMS7003;13506;50.852;20.632;2022-12-29T08:41:12;11.00;8.00;3.25
21358;PMS7003;13506;50.852;20.632;2022-12-29T08:43:41;34.20;28.00;17.80
21358;PMS7003;13506;50.852;20.632;2022-12-29T08:46:13;29.20;23.00;14.20
21358;PMS7003;13506;50.852;20.632;2022-12-29T08:48:40;9.00;6.50;3.00
21358;PMS7003;13506;50.852;20.632;2022-12-29T08:51:08;19.00;15.75;8.75
21358;PMS7003;13506;50.852;20.632;2022-12-29T08:53:36;12.25;9.50;4.00
21358;PMS7003;13506;50.852;20.632;2022-12-29T08:56:04;8.00;8.00;4.00
21358;PMS7003;13506;50.852;20.632;2022-12-29T08:58:43;10.25;8.50;4.00
21358;PMS7003;13506;50.852;20.632;2022-12-29T09:01:11;10.00;9.25;3.50
21358;PMS7003;13506;50.852;20.632;2022-12-29T09:03:39;9.50;9.25;4.00
21358;PMS7003;13506;50.852;20.632;2022-12-29T09:06:07;10.00;8.00;4.00
21358;PMS7003;13506;50.852;20.632;2022-12-29T09:08:35;10.00;9.00;4.00
21358;PMS7003;13506;50.852;20.632;2022-12-29T09:11:07;7.25;7.25;4.00
21358;PMS7003;13506;50.852;20.632;2022-12-29T09:13:35;14.00;11.75;7.00
21358;PMS7003;13506;50.852;20.632;2022-12-29T09:16:05;12.25;10.25;5.00
21358;PMS7003;13506;50.852;20.632;2022-12-29T09:18:33;13.25;11.00;6.00
21358;PMS7003;13506;50.852;20.632;2022-12-29T09:21:02;14.00;13.00;6.50
21358;PMS7003;13506;50.852;20.632;2022-12-29T09:23:32;13.50;11.50;6.75
21358;PMS7003;13506;50.852;20.632;2022-12-29T09:26:01;10.25;10.25;5.75
21358;PMS7003;13506;50.852;20.632;2022-12-29T09:28:29;12.25;10.50;7.00
21358;PMS7003;13506;50.852;20.632;2022-12-29T09:30:57;11.75;11.00;7.00
21358;PMS7003;13506;50.852;20.632;2022-12-29T09:33:27;12.50;12.25;7.00
21358;PMS7003;13506;50.852;20.632;2022-12-29T09:35:55;10.25;10.25;6.50
21358;PMS7003;13506;50.852;20.632;2022-12-29T09:38:25;13.50;12.50;6.75
21358;PMS7003;13506;50.852;20.632;2022-12-29T09:40:55;15.75;13.50;6.25
21358;PMS7003;13506;50.852;20.632;2022-12-29T09:43:41;12.25;11.75;7.00
21358;PMS7003;13506;50.852;20.632;2022-12-29T09:46:26;13.75;12.00;7.00
21358;PMS7003;13506;50.852;20.632;2022-12-29T09:49:00;13.25;10.50;5.00
21358;PMS7003;13506;50.852;20.632;2022-12-29T09:51:42;10.00;10.00;4.75
21358;PMS7003;13506;50.852;20.632;2022-12-29T09:54:20;16.00;13.00;6.50
21358;PMS7003;13506;50.852;20.632;2022-12-29T09:57:10;10.75;8.50;3.00
21358;PMS7003;13506;50.852;20.632;2022-12-29T09:59:46;11.50;9.00;6.00
21358;PMS7003;13506;50.852;20.632;2022-12-29T10:02:31;9.25;9.25;5.00
21358;PMS7003;13506;50.852;20.632;2022-12-29T10:05:20;11.00;9.50;5.25
21358;PMS7003;13506;50.852;20.632;2022-12-29T10:08:12;9.00;9.00;4.75
21358;PMS7003;13506;50.852;20.632;2022-12-29T10:11:03;10.00;9.50;5.00
21358;PMS7003;13506;50.852;20.632;2022-12-29T10:13:46;10.75;9.50;3.75
21358;PMS7003;13506;50.852;20.632;2022-12-29T10:16:38;10.75;10.00;5.50
21358;PMS7003;13506;50.852;20.632;2022-12-29T10:19:25;14.75;14.00;8.50
21358;PMS7003;13506;50.852;20.632;2022-12-29T10:22:12;12.50;11.75;7.50
21358;PMS7003;13506;50.852;20.632;2022-12-29T10:24:58;15.50;10.75;6.00
21358;PMS7003;13506;50.852;20.632;2022-12-29T10:27:28;15.00;13.50;8.00
21358;PMS7003;13506;50.852;20.632;2022-12-29T10:30:01;14.25;14.00;7.25
21358;PMS7003;13506;50.852;20.632;2022-12-29T10:32:31;13.25;12.00;7.75
21358;PMS7003;13506;50.852;20.632;2022-12-29T10:35:05;15.50;15.00;8.00
21358;PMS7003;13506;50.852;20.632;2022-12-29T10:37:41;11.00;11.00;6.00
21358;PMS7003;13506;50.852;20.632;2022-12-29T10:40:18;12.75;10.75;6.25
21358;PMS7003;13506;50.852;20.632;2022-12-29T10:42:52;12.50;11.00;5.75
21358;PMS7003;13506;50.852;20.632;2022-12-29T10:45:24;13.00;11.80;6.00
21358;PMS7003;13506;50.852;20.632;2022-12-29T10:47:59;15.20;13.00;7.80
21358;PMS7003;13506;50.852;20.632;2022-12-29T10:50:30;13.80;13.40;7.20
21358;PMS7003;13506;50.852;20.632;2022-12-29T10:53:01;14.75;14.25;7.00
21358;PMS7003;13506;50.852;20.632;2022-12-29T10:55:32;16.40;14.80;7.60
21358;PMS7003;13506;50.852;20.632;2022-12-29T10:58:04;17.20;15.20;9.00
21358;PMS7003;13506;50.852;20.632;2022-12-29T11:00:36;17.50;14.75;7.75
21358;PMS7003;13506;50.852;20.632;2022-12-29T11:03:09;15.75;12.50;8.00
21358;PMS7003;13506;50.852;20.632;2022-12-29T11:06:14;16.50;12.75;8.00
21358;PMS7003;13506;50.852;20.632;2022-12-29T11:08:55;16.50;15.25;8.00
21358;PMS7003;13506;50.852;20.632;2022-12-29T11:11:27;10.50;10.00;5.00
21358;PMS7003;13506;50.852;20.632;2022-12-29T11:14:02;15.00;11.50;7.00
21358;PMS7003;13506;50.852;20.632;2022-12-29T11:16:39;15.25;12.75;7.00
21358;PMS7003;13506;50.852;20.632;2022-12-29T11:19:19;18.25;15.25;7.50
21358;PMS7003;13506;50.852;20.632;2022-12-29T11:21:49;13.00;11.75;5.50
21358;PMS7003;13506;50.852;20.632;2022-12-29T11:24:20;12.50;10.75;6.50
21358;PMS7003;13506;50.852;20.632;2022-12-29T11:26:51;12.50;10.50;5.00
21358;PMS7003;13506;50.852;20.632;2022-12-29T11:29:27;14.25;13.00;6.00
21358;PMS7003;13506;50.852;20.632;2022-12-29T11:32:10;15.75;12.75;5.25
21358;PMS7003;13506;50.852;20.632;2022-12-29T11:34:43;12.75;12.00;5.50
21358;PMS7003;13506;50.852;20.632;2022-12-29T11:37:12;13.00;10.25;5.75
21358;PMS7003;13506;50.852;20.632;2022-12-29T11:39:47;15.00;12.00;6.25
21358;PMS7003;13506;50.852;20.632;2022-12-29T11:42:23;11.50;10.00;5.00
21358;PMS7003;13506;50.852;20.632;2022-12-29T11:45:04;14.25;11.50;5.75
21358;PMS7003;13506;50.852;20.632;2022-12-29T11:47:42;10.50;9.25;5.25
21358;PMS7003;13506;50.852;20.632;2022-12-29T11:50:16;14.25;12.50;5.75
21358;PMS7003;13506;50.852;20.632;2022-12-29T11:52:47;14.25;12.75;8.00
21358;PMS7003;13506;50.852;20.632;2022-12-29T11:55:25;13.00;12.00;5.75
21358;PMS7003;13506;50.852;20.632;2022-12-29T11:57:55;13.00;12.25;6.00
21358;PMS7003;13506;50.852;20.632;2022-12-29T12:00:27;16.25;13.50;8.00
21358;PMS7003;13506;50.852;20.632;2022-12-29T12:02:58;12.50;12.00;6.50
21358;PMS7003;13506;50.852;20.632;2022-12-29T12:05:35;16.50;14.00;6.75
21358;PMS7003;13506;50.852;20.632;2022-12-29T12:08:11;15.75;14.25;6.00
21358;PMS7003;13506;50.852;20.632;2022-12-29T12:10:48;13.25;13.00;6.25
21358;PMS7003;13506;50.852;20.632;2022-12-29T12:13:27;11.00;10.00;5.50
21358;PMS7003;13506;50.852;20.632;2022-12-29T12:16:02;13.50;11.25;6.00
21358;PMS7003;13506;50.852;20.632;2022-12-29T12:18:38;17.00;15.25;8.25
21358;PMS7003;13506;50.852;20.632;2022-12-29T12:21:13;11.50;9.25;5.25
21358;PMS7003;13506;50.852;20.632;2022-12-29T12:23:58;15.75;13.00;6.75
21358;PMS7003;13506;50.852;20.632;2022-12-29T12:26:53;13.75;13.75;8.00
21358;PMS7003;13506;50.852;20.632;2022-12-29T12:29:31;16.00;14.25;6.00
21358;PMS7003;13506;50.852;20.632;2022-12-29T12:32:08;15.00;11.00;6.50
21358;PMS7003;13506;50.852;20.632;2022-12-29T12:34:43;13.50;11.50;6.00
21358;PMS7003;13506;50.852;20.632;2022-12-29T12:37:16;11.50;11.00;5.00
21358;PMS7003;13506;50.852;20.632;2022-12-29T12:43:38;11.75;11.00;5.00
21358;PMS7003;13506;50.852;20.632;2022-12-29T12:46:23;11.75;9.50;4.75
21358;PMS7003;13506;50.852;20.632;2022-12-29T12:49:39;15.50;14.50;7.00
21358;PMS7003;13506;50.852;20.632;2022-12-29T12:52:20;13.00;10.00;5.00
21358;PMS7003;13506;50.852;20.632;2022-12-29T12:55:02;12.50;9.50;5.00
21358;PMS7003;13506;50.852;20.632;2022-12-29T12:58:00;8.75;8.75;4.25
21358;PMS7003;13506;50.852;20.632;2022-12-29T13:00:40;15.50;12.25;5.00
21358;PMS7003;13506;50.852;20.632;2022-12-29T13:03:21;12.00;9.00;4.75
21358;PMS7003;13506;50.852;20.632;2022-12-29T13:06:07;13.50;12.00;6.50
21358;PMS7003;13506;50.852;20.632;2022-12-29T13:09:10;12.25;11.00;6.00
21358;PMS7003;13506;50.852;20.632;2022-12-29T13:12:03;14.00;12.00;7.00
21358;PMS7003;13506;50.852;20.632;2022-12-29T13:14:47;18.00;14.50;8.00
21358;PMS7003;13506;50.852;20.632;2022-12-29T13:17:28;16.50;14.00;7.00
21358;PMS7003;13506;50.852;20.632;2022-12-29T13:20:06;11.75;10.75;4.75
21358;PMS7003;13506;50.852;20.632;2022-12-29T13:22:48;10.50;8.50;5.00
21358;PMS7003;13506;50.852;20.632;2022-12-29T13:25:27;11.75;11.75;6.00
21358;PMS7003;13506;50.852;20.632;2022-12-29T13:28:03;16.40;15.40;7.60
21358;PMS7003;13506;50.852;20.632;2022-12-29T13:30:41;18.00;15.00;8.00
21358;PMS7003;13506;50.852;20.632;2022-12-29T13:33:22;20.20;19.40;10.60
21358;PMS7003;13506;50.852;20.632;2022-12-29T13:36:03;19.40;19.40;12.40
21358;PMS7003;13506;50.852;20.632;2022-12-29T13:38:38;19.60;19.40;11.00
21358;PMS7003;13506;50.852;20.632;2022-12-29T13:41:11;24.00;21.00;11.60
21358;PMS7003;13506;50.852;20.632;2022-12-29T13:43:45;24.20;22.00;10.80
21358;PMS7003;13506;50.852;20.632;2022-12-29T13:46:18;18.20;15.00;7.60
21358;PMS7003;13506;50.852;20.632;2022-12-29T13:48:53;17.60;15.00;7.60
21358;PMS7003;13506;50.852;20.632;2022-12-29T13:51:26;13.75;12.50;6.50
21358;PMS7003;13506;50.852;20.632;2022-12-29T13:54:00;13.50;13.00;7.00
21358;PMS7003;13506;50.852;20.632;2022-12-29T13:56:39;18.60;13.20;9.40
21358;PMS7003;13506;50.852;20.632;2022-12-29T13:59:16;14.00;13.00;5.00
21358;PMS7003;13506;50.852;20.632;2022-12-29T14:01:53;20.75;16.50;10.25
21358;PMS7003;13506;50.852;20.632;2022-12-29T14:04:28;14.00;13.50;7.00
21358;PMS7003;13506;50.852;20.632;2022-12-29T14:07:02;17.00;14.00;7.50
21358;PMS7003;13506;50.852;20.632;2022-12-29T14:09:39;17.75;15.00;7.00
21358;PMS7003;13506;50.852;20.632;2022-12-29T14:15:03;18.40;13.40;7.00
21358;PMS7003;13506;50.852;20.632;2022-12-29T14:20:56;16.25;14.00;7.00
21358;PMS7003;13506;50.852;20.632;2022-12-29T14:23:27;15.50;13.75;7.00
21358;PMS7003;13506;50.852;20.632;2022-12-29T14:26:11;18.75;14.75;5.25
21358;PMS7003;13506;50.852;20.632;2022-12-29T14:28:44;16.00;13.75;6.50
21358;PMS7003;13506;50.852;20.632;2022-12-29T14:34:15;18.50;15.75;9.25
21358;PMS7003;13506;50.852;20.632;2022-12-29T14:37:17;18.80;16.00;8.00
21358;PMS7003;13506;50.852;20.632;2022-12-29T14:42:44;18.20;17.40;10.00
21358;PMS7003;13506;50.852;20.632;2022-12-29T14:45:24;14.50;14.50;8.00
21358;PMS7003;13506;50.852;20.632;2022-12-29T14:47:55;20.40;20.40;11.00
21358;PMS7003;13506;50.852;20.632;2022-12-29T14:50:24;21.50;16.25;9.75
21358;PMS7003;13506;50.852;20.632;2022-12-29T14:53:40;17.50;17.50;9.25
21358;PMS7003;13506;50.852;20.632;2022-12-29T14:56:11;18.00;17.75;10.00
21358;PMS7003;13506;50.852;20.632;2022-12-29T14:58:43;21.25;18.25;10.00